Time;durP1;ratioP1;P1;durP2;ratioP2;P2;SDS_P1;SDS_P2;PMS_P1;PMS_P2;Temp;Humidity;BMP_temperature;BMP_pressure;BME280_temperature;BME280_humidity;BME280_pressure;Samples;Min_cycle;Max_cycle;Signal;HPM_P1;HPM_P2
2023/05/25 00:01:58;;;;;;;17.17;13.80;;;6.20;99.90;;;;;;5009394;28;20041;-81
2023/05/25 00:04:25;;;;;;;14.93;12.00;;;6.20;99.90;;;;;;5032831;28;20458;-82
2023/05/25 00:06:54;;;;;;;25.55;16.77;;;6.20;99.90;;;;;;5016173;28;20045;-81
2023/05/25 00:09:20;;;;;;;17.40;13.98;;;6.20;99.90;;;;;;5029951;28;20400;-81
2023/05/25 00:11:45;;;;;;;16.95;13.60;;;6.20;99.90;;;;;;4997120;28;20052;-81
2023/05/25 00:14:11;;;;;;;18.13;14.35;;;6.20;99.90;;;;;;4997776;28;20513;-81
2023/05/25 00:16:39;;;;;;;19.80;15.27;;;6.10;99.90;;;;;;5022908;28;20492;-82
2023/05/25 00:19:05;;;;;;;20.00;14.80;;;6.10;99.90;;;;;;5022838;28;20041;-82
2023/05/25 00:21:36;;;;;;;24.70;18.08;;;6.20;99.90;;;;;;4997030;28;20041;-81
2023/05/25 00:24:06;;;;;;;16.50;13.63;;;6.10;99.90;;;;;;4996996;28;20042;-81
2023/05/25 00:26:31;;;;;;;16.98;14.18;;;6.00;99.90;;;;;;5013213;28;20092;-81
2023/05/25 00:28:59;;;;;;;23.35;16.60;;;6.00;99.90;;;;;;5012473;28;20038;-82
2023/05/25 00:31:25;;;;;;;17.88;14.52;;;6.00;99.90;;;;;;5028924;28;20056;-82
2023/05/25 00:33:50;;;;;;;19.33;15.60;;;6.00;99.90;;;;;;5009435;28;20034;-81
2023/05/25 00:36:16;;;;;;;17.55;13.40;;;6.00;99.90;;;;;;4996718;28;20037;-81
2023/05/25 00:38:42;;;;;;;15.55;13.43;;;6.00;99.90;;;;;;5024164;28;20099;-81
2023/05/25 00:41:07;;;;;;;14.68;13.02;;;5.90;99.90;;;;;;4997297;28;20042;-81
2023/05/25 00:43:33;;;;;;;14.30;12.80;;;5.90;99.90;;;;;;4997883;28;20392;-81
2023/05/25 00:45:59;;;;;;;19.83;15.07;;;5.90;99.90;;;;;;5015497;28;20121;-81
2023/05/25 00:48:25;;;;;;;21.08;15.27;;;5.90;99.90;;;;;;5004666;28;20127;-81
2023/05/25 00:50:56;;;;;;;19.67;16.00;;;5.90;99.90;;;;;;5027651;28;20092;-81
2023/05/25 00:53:22;;;;;;;17.40;14.73;;;5.80;99.90;;;;;;5015655;28;20442;-82
2023/05/25 00:56:12;;;;;;;20.23;16.25;;;5.80;99.90;;;;;;5017461;28;20045;-81
2023/05/25 00:58:40;;;;;;;17.27;14.85;;;5.80;99.90;;;;;;5008663;28;20041;-81
2023/05/25 01:01:10;;;;;;;17.20;14.90;;;5.80;99.90;;;;;;5007204;28;20096;-81
2023/05/25 01:03:38;;;;;;;16.92;15.13;;;5.70;99.90;;;;;;5015706;28;20451;-81
2023/05/25 01:06:10;;;;;;;24.77;18.58;;;5.70;99.90;;;;;;5015141;28;20034;-81
2023/05/25 01:08:39;;;;;;;23.35;18.13;;;5.70;99.90;;;;;;5015235;28;20395;-81
2023/05/25 01:11:07;;;;;;;24.95;18.25;;;5.70;99.90;;;;;;5015687;28;20088;-81
2023/05/25 01:13:33;;;;;;;17.40;14.40;;;5.70;99.90;;;;;;5011743;28;20133;-81
2023/05/25 01:15:59;;;;;;;20.02;15.40;;;5.70;99.90;;;;;;5015092;28;20395;-81
2023/05/25 01:18:25;;;;;;;29.65;20.13;;;5.70;99.90;;;;;;5014985;28;20116;-81
2023/05/25 01:21:11;;;;;;;19.40;16.63;;;5.60;99.90;;;;;;5008942;28;20038;-81
2023/05/25 01:23:42;;;;;;;22.67;17.92;;;5.60;99.90;;;;;;5012064;28;20124;-81
2023/05/25 01:26:14;;;;;;;25.17;17.08;;;5.60;99.90;;;;;;5003483;28;20087;-81
2023/05/25 01:28:45;;;;;;;21.00;16.23;;;5.60;99.90;;;;;;5012484;28;20068;-81
2023/05/25 01:31:13;;;;;;;17.40;15.25;;;5.60;99.90;;;;;;5006843;28;20038;-81
2023/05/25 01:33:40;;;;;;;15.75;14.05;;;5.60;99.90;;;;;;5015089;28;20476;-81
2023/05/25 01:36:06;;;;;;;17.17;15.38;;;5.60;99.90;;;;;;5015009;28;20041;-81
2023/05/25 01:38:32;;;;;;;19.05;16.52;;;5.60;99.90;;;;;;5025391;28;20376;-81
2023/05/25 01:40:58;;;;;;;17.02;15.23;;;5.60;99.90;;;;;;4997927;28;20045;-81
2023/05/25 01:43:24;;;;;;;20.27;16.40;;;5.50;99.90;;;;;;5020085;28;20045;-81
2023/05/25 01:45:55;;;;;;;18.70;16.70;;;5.50;99.90;;;;;;4994930;28;20034;-81
2023/05/25 01:48:29;;;;;;;17.25;15.30;;;5.50;99.90;;;;;;5004061;28;20030;-81
2023/05/25 01:51:03;;;;;;;17.27;14.65;;;5.50;99.90;;;;;;5013310;28;20042;-81
2023/05/25 01:53:33;;;;;;;18.92;15.25;;;5.40;99.90;;;;;;5001976;28;20072;-81
2023/05/25 01:56:03;;;;;;;17.02;15.10;;;5.40;99.90;;;;;;5009621;28;20049;-81
2023/05/25 01:58:41;;;;;;;18.98;15.93;;;5.40;99.90;;;;;;5040623;28;20088;-81
2023/05/25 02:01:12;;;;;;;21.15;17.58;;;5.40;99.90;;;;;;5006770;28;20072;-81
2023/05/25 02:03:40;;;;;;;14.52;12.70;;;5.30;99.90;;;;;;5031587;28;20440;-81
2023/05/25 02:06:07;;;;;;;21.00;15.57;;;5.30;99.90;;;;;;5013761;28;20033;-81
2023/05/25 02:08:32;;;;;;;22.17;17.70;;;5.30;99.90;;;;;;5008372;28;20045;-81
2023/05/25 02:10:58;;;;;;;23.95;17.48;;;5.30;99.90;;;;;;5010914;28;20029;-81
2023/05/25 02:13:24;;;;;;;30.02;20.65;;;5.30;99.90;;;;;;5014616;28;20087;-81
2023/05/25 02:15:49;;;;;;;33.70;23.98;;;5.30;99.90;;;;;;5030993;28;20096;-81
2023/05/25 02:18:16;;;;;;;65.68;36.75;;;5.30;99.90;;;;;;5012833;28;20072;-81
2023/05/25 02:20:42;;;;;;;27.25;22.27;;;5.40;99.90;;;;;;5013252;28;20072;-81
2023/05/25 02:23:08;;;;;;;37.40;25.55;;;5.40;99.90;;;;;;4999143;28;20510;-81
2023/05/25 02:25:34;;;;;;;52.60;29.90;;;5.50;99.90;;;;;;5001527;28;20129;-81
2023/05/25 02:28:00;;;;;;;26.15;20.30;;;5.50;99.90;;;;;;5017446;28;20034;-81
2023/05/25 02:30:25;;;;;;;28.88;21.33;;;5.50;99.90;;;;;;5014534;28;20124;-81
2023/05/25 02:32:52;;;;;;;36.15;23.98;;;5.50;99.90;;;;;;5008334;28;20495;-81
2023/05/25 02:35:18;;;;;;;28.98;20.98;;;5.50;99.90;;;;;;5017530;28;20052;-81
2023/05/25 02:37:44;;;;;;;57.40;34.13;;;5.40;99.90;;;;;;4994776;28;20065;-81
2023/05/25 02:40:10;;;;;;;53.60;30.50;;;5.50;99.90;;;;;;4997963;28;20060;-81
2023/05/25 02:42:36;;;;;;;30.17;21.83;;;5.40;99.90;;;;;;5014239;28;20526;-81
2023/05/25 02:45:02;;;;;;;26.55;21.95;;;5.40;99.90;;;;;;5014071;28;20033;-81
2023/05/25 02:47:28;;;;;;;37.65;23.30;;;5.40;99.90;;;;;;5032226;28;20037;-81
2023/05/25 02:49:53;;;;;;;34.33;21.35;;;5.40;99.90;;;;;;5023162;28;20256;-81
2023/05/25 02:52:20;;;;;;;46.78;21.95;;;5.40;99.90;;;;;;4994523;28;20492;-81
2023/05/25 02:54:46;;;;;;;29.17;20.95;;;5.30;99.90;;;;;;5038804;23;20411;-78
2023/05/25 02:57:13;;;;;;;24.35;18.77;;;5.30;99.90;;;;;;4982539;28;20411;-77
2023/05/25 02:59:39;;;;;;;21.65;17.60;;;5.30;99.90;;;;;;4993746;28;20041;-78
2023/05/25 03:02:06;;;;;;;22.08;18.17;;;5.30;99.90;;;;;;4998515;28;20034;-78
2023/05/25 03:04:33;;;;;;;22.75;18.23;;;5.30;99.90;;;;;;5019705;28;20036;-78
2023/05/25 03:06:59;;;;;;;28.45;21.20;;;5.30;99.90;;;;;;5015791;28;20373;-77
2023/05/25 03:09:25;;;;;;;21.88;18.65;;;5.20;99.90;;;;;;5032793;28;20340;-78
2023/05/25 03:11:51;;;;;;;30.63;22.23;;;5.20;99.90;;;;;;5013070;28;20041;-78
2023/05/25 03:14:16;;;;;;;28.67;22.15;;;5.20;99.90;;;;;;5015052;28;20053;-77
2023/05/25 03:16:42;;;;;;;34.00;23.42;;;5.20;99.90;;;;;;5029465;28;20048;-78
2023/05/25 03:19:10;;;;;;;36.75;25.25;;;5.20;99.90;;;;;;5005957;28;20044;-78
2023/05/25 03:21:37;;;;;;;31.10;22.10;;;5.20;99.90;;;;;;5014752;28;20037;-78
2023/05/25 03:24:06;;;;;;;29.33;23.67;;;5.20;99.90;;;;;;5017453;28;20036;-78
2023/05/25 03:26:32;;;;;;;23.95;18.92;;;5.20;99.90;;;;;;5037017;28;20045;-78
2023/05/25 03:29:01;;;;;;;31.92;23.05;;;5.10;99.90;;;;;;5019336;28;20120;-78
2023/05/25 03:31:28;;;;;;;28.75;21.15;;;5.20;99.90;;;;;;5028982;28;20037;-78
2023/05/25 03:33:54;;;;;;;25.65;19.63;;;5.20;99.90;;;;;;5036896;28;20041;-78
2023/05/25 03:36:26;;;;;;;24.63;20.00;;;5.10;99.90;;;;;;5030333;28;20051;-78
2023/05/25 03:38:53;;;;;;;24.65;19.88;;;5.20;99.90;;;;;;5011691;28;20402;-78
2023/05/25 03:41:22;;;;;;;27.73;21.05;;;5.10;99.90;;;;;;5036657;28;20043;-78
2023/05/25 03:43:49;;;;;;;22.85;18.80;;;5.20;99.90;;;;;;5018856;28;20032;-78
2023/05/25 03:46:16;;;;;;;28.02;19.70;;;5.20;99.90;;;;;;5011896;28;20070;-78
2023/05/25 03:48:42;;;;;;;18.73;16.83;;;5.20;99.90;;;;;;5013222;28;20047;-77
2023/05/25 03:51:09;;;;;;;31.40;23.88;;;5.20;99.90;;;;;;5029993;28;20095;-78
2023/05/25 03:53:36;;;;;;;29.35;23.55;;;5.20;99.90;;;;;;5020051;28;20111;-78
2023/05/25 03:56:02;;;;;;;25.77;20.92;;;5.20;99.90;;;;;;5019641;28;20634;-78
2023/05/25 03:58:29;;;;;;;29.95;22.02;;;5.20;99.90;;;;;;5026276;28;20037;-78
2023/05/25 04:00:56;;;;;;;31.80;24.73;;;5.20;99.90;;;;;;5007510;28;20119;-78
2023/05/25 04:03:26;;;;;;;28.85;22.50;;;5.30;99.90;;;;;;5009922;28;20037;-78
2023/05/25 04:05:52;;;;;;;45.67;32.00;;;5.40;99.90;;;;;;5016017;28;20037;-78
2023/05/25 04:08:24;;;;;;;25.77;20.88;;;5.30;99.90;;;;;;5016520;28;20059;-78
2023/05/25 04:10:55;;;;;;;24.92;20.65;;;5.40;99.90;;;;;;5015963;28;20530;-78
2023/05/25 04:13:24;;;;;;;21.55;19.40;;;5.50;99.90;;;;;;5018846;28;20102;-80
2023/05/25 04:15:56;;;;;;;54.78;28.30;;;5.50;99.90;;;;;;5017030;28;20036;-80
2023/05/25 04:18:23;;;;;;;27.42;20.42;;;5.60;99.90;;;;;;5006852;28;20136;-81
2023/05/25 04:20:50;;;;;;;24.10;19.98;;;5.60;99.90;;;;;;5004042;28;20041;-81
2023/05/25 04:23:18;;;;;;;35.05;27.42;;;5.70;99.90;;;;;;5010662;28;20094;-80
2023/05/25 04:25:45;;;;;;;34.97;26.15;;;5.80;99.90;;;;;;5019950;28;20044;-80
2023/05/25 04:28:11;;;;;;;34.35;25.25;;;5.90;99.90;;;;;;5016487;28;20043;-80
2023/05/25 04:30:41;;;;;;;36.90;27.92;;;6.10;99.90;;;;;;5013829;28;20034;-81
2023/05/25 04:33:12;;;;;;;49.95;34.10;;;6.30;99.90;;;;;;5017576;28;20041;-80
2023/05/25 04:35:41;;;;;;;26.23;22.10;;;6.90;99.90;;;;;;5018734;28;20037;-80
2023/05/25 04:38:11;;;;;;;24.00;20.75;;;7.50;99.90;;;;;;5017943;28;20398;-81
2023/05/25 04:40:40;;;;;;;30.83;21.92;;;8.00;99.90;;;;;;5006582;28;20037;-81
2023/05/25 04:43:08;;;;;;;25.48;19.50;;;8.60;99.90;;;;;;5016434;28;20518;-81
2023/05/25 04:45:35;;;;;;;28.00;18.35;;;9.20;99.90;;;;;;5000248;28;20399;-80
2023/05/25 04:48:06;;;;;;;26.17;17.67;;;9.80;99.90;;;;;;5000132;28;20045;-81
2023/05/25 04:50:36;;;;;;;19.50;14.95;;;10.20;99.90;;;;;;5000440;28;20471;-81
2023/05/25 04:53:05;;;;;;;21.05;13.55;;;10.60;99.90;;;;;;5012521;28;20040;-80
2023/05/25 04:55:38;;;;;;;20.80;14.68;;;11.10;99.90;;;;;;5012462;28;20037;-81
2023/05/25 04:58:05;;;;;;;17.45;13.43;;;11.40;99.90;;;;;;4999504;28;20104;-81
2023/05/25 05:00:33;;;;;;;18.40;12.18;;;11.80;99.90;;;;;;5002912;28;20039;-81
2023/05/25 05:02:59;;;;;;;18.50;12.75;;;12.10;99.90;;;;;;5022931;28;20406;-81
2023/05/25 05:05:31;;;;;;;28.80;14.48;;;12.50;99.90;;;;;;5024018;28;20045;-80
2023/05/25 05:07:58;;;;;;;15.57;10.90;;;12.90;99.90;;;;;;4999355;28;20037;-81
2023/05/25 05:10:34;;;;;;;17.27;11.55;;;13.20;99.90;;;;;;5015872;28;20044;-81
2023/05/25 05:13:00;;;;;;;24.05;12.57;;;13.30;99.90;;;;;;5021779;28;20115;-81
2023/05/25 05:15:26;;;;;;;13.60;10.40;;;13.50;99.90;;;;;;5013087;28;20049;-81
2023/05/25 05:17:55;;;;;;;13.85;10.43;;;13.60;99.90;;;;;;5011773;28;20514;-81
2023/05/25 05:20:25;;;;;;;14.55;10.20;;;13.80;99.90;;;;;;5017298;28;20529;-81
2023/05/25 05:22:53;;;;;;;15.73;10.73;;;14.10;99.90;;;;;;5011653;28;20045;-81
2023/05/25 05:25:19;;;;;;;16.83;11.30;;;14.40;99.90;;;;;;5050650;28;20064;-81
2023/05/25 05:27:45;;;;;;;14.23;9.70;;;14.60;99.90;;;;;;5015707;28;20041;-81
2023/05/25 05:30:14;;;;;;;14.00;10.15;;;14.80;99.90;;;;;;5012223;28;20455;-81
2023/05/25 05:32:43;;;;;;;13.35;9.88;;;15.10;99.90;;;;;;5025722;28;20037;-81
2023/05/25 05:35:15;;;;;;;13.90;9.68;;;15.40;99.90;;;;;;5038731;28;20048;-81
2023/05/25 05:37:41;;;;;;;13.88;9.90;;;15.60;99.90;;;;;;5008155;28;20041;-80
2023/05/25 05:40:07;;;;;;;14.13;9.52;;;15.70;99.90;;;;;;5026370;28;20071;-80
2023/05/25 05:42:33;;;;;;;15.13;9.20;;;16.00;99.90;;;;;;5030614;28;20474;-80
2023/05/25 05:45:02;;;;;;;15.68;9.70;;;16.00;99.90;;;;;;5017216;28;20072;-81
2023/05/25 05:47:29;;;;;;;14.40;9.68;;;16.00;99.90;;;;;;5006725;28;20040;-80
2023/05/25 05:49:58;;;;;;;14.43;10.20;;;15.80;99.90;;;;;;5035117;28;20127;-81
2023/05/25 05:52:28;;;;;;;14.13;10.00;;;15.40;99.90;;;;;;5019141;28;20498;-82
2023/05/25 05:55:03;;;;;;;14.10;11.00;;;14.90;99.90;;;;;;5005513;28;20065;-82
2023/05/25 05:57:30;;;;;;;14.55;10.65;;;14.60;99.90;;;;;;5033685;28;20045;-83
2023/05/25 06:00:07;;;;;;;17.92;11.77;;;14.60;99.90;;;;;;5009717;28;20440;-80
2023/05/25 06:02:33;;;;;;;15.73;11.95;;;14.50;99.90;;;;;;5007132;28;20076;-80
2023/05/25 06:05:00;;;;;;;17.58;11.63;;;14.20;99.90;;;;;;5015500;28;20111;-80
2023/05/25 06:07:27;;;;;;;17.30;12.10;;;13.90;99.90;;;;;;5009327;28;20039;-80
2023/05/25 06:10:00;;;;;;;15.10;12.27;;;13.60;99.90;;;;;;5019076;28;20156;-80
2023/05/25 06:12:27;;;;;;;16.52;13.00;;;13.40;99.90;;;;;;5009112;28;20041;-80
2023/05/25 06:14:54;;;;;;;18.65;13.45;;;13.40;99.90;;;;;;5005131;28;20499;-80
2023/05/25 06:17:23;;;;;;;20.35;13.40;;;13.20;99.90;;;;;;5020436;28;20045;-80
2023/05/25 06:19:52;;;;;;;20.63;14.07;;;13.00;99.90;;;;;;5018677;28;20095;-79
2023/05/25 06:22:22;;;;;;;18.40;15.13;;;12.90;99.90;;;;;;5019502;28;20041;-82
2023/05/25 06:28:14;;;;;;;20.35;14.70;;;12.90;99.90;;;;;;5030503;28;20431;-79
2023/05/25 06:31:07;;;;;;;21.33;16.10;;;12.90;99.90;;;;;;4994968;28;20060;-79
2023/05/25 06:37:33;;;;;;;20.52;14.60;;;12.90;99.90;;;;;;5003152;28;20085;-79
2023/05/25 06:47:47;;;;;;;;;;;;;;;;;;;;;
2023/05/25 06:50:55;;;;;;;17.85;11.98;;;13.30;99.90;;;;;;5013567;28;20423;-79
2023/05/25 06:57:38;;;;;;;14.95;9.52;;;13.50;99.90;;;;;;5016917;28;20103;-80
2023/05/25 07:00:38;;;;;;;12.98;8.20;;;13.50;99.90;;;;;;5018000;28;20126;-79
2023/05/25 07:03:18;;;;;;;19.40;9.63;;;13.60;99.90;;;;;;5006357;28;20041;-79
2023/05/25 07:06:16;;;;;;;11.68;6.93;;;13.70;99.90;;;;;;5018637;28;20399;-78
2023/05/25 07:08:54;;;;;;;12.38;6.97;;;13.90;99.90;;;;;;5020724;28;20500;-78
2023/05/25 07:11:36;;;;;;;12.35;6.60;;;14.20;99.90;;;;;;5016531;28;20044;-78
2023/05/25 07:14:11;;;;;;;10.75;5.93;;;14.20;99.90;;;;;;5002929;28;20033;-78
2023/05/25 07:16:52;;;;;;;9.88;6.75;;;14.20;99.90;;;;;;5030063;28;20426;-77
2023/05/25 07:19:21;;;;;;;11.20;5.85;;;14.20;99.90;;;;;;5015502;28;20038;-77
2023/05/25 07:22:09;;;;;;;15.50;6.45;;;14.40;99.90;;;;;;5000277;28;20089;-77
2023/05/25 07:25:03;;;;;;;10.85;5.70;;;14.50;99.90;;;;;;5006476;28;20068;-78
2023/05/25 07:27:55;;;;;;;14.35;6.60;;;14.70;99.90;;;;;;5000535;28;20450;-78
2023/05/25 07:30:45;;;;;;;10.38;4.65;;;14.90;99.90;;;;;;5004533;28;20043;-77
2023/05/25 07:33:54;;;;;;;13.63;5.45;;;15.20;99.90;;;;;;5000839;28;20128;-78
2023/05/25 07:36:36;;;;;;;10.70;5.40;;;15.30;99.90;;;;;;4954436;28;20054;-77
2023/05/25 07:39:31;;;;;;;12.50;6.00;;;15.50;99.90;;;;;;4973502;28;20057;-77
2023/05/25 07:42:09;;;;;;;11.68;5.97;;;15.60;99.90;;;;;;4956868;28;20406;-77
2023/05/25 07:44:46;;;;;;;12.18;5.63;;;15.90;99.90;;;;;;4940489;28;20123;-77
2023/05/25 07:48:00;;;;;;;12.27;6.03;;;16.30;99.90;;;;;;4941965;28;20137;-77
2023/05/25 07:51:02;;;;;;;13.05;4.30;;;16.90;99.90;;;;;;4941171;28;20042;-77
2023/05/25 07:54:10;;;;;;;10.38;4.40;;;17.30;98.90;;;;;;4953872;29;20457;-77
2023/05/25 07:57:28;;;;;;;9.27;4.68;;;16.90;99.90;;;;;;4990714;28;20492;-77
2023/05/25 08:00:50;;;;;;;;;;;;;;;;;;;;;
2023/05/25 08:03:40;;;;;;;11.75;4.88;;;16.80;99.90;;;;;;5023625;28;20093;-77
2023/05/25 08:06:40;;;;;;;11.27;5.13;;;16.80;99.90;;;;;;4964873;28;20059;-77
2023/05/25 08:09:30;;;;;;;15.60;5.63;;;16.60;99.90;;;;;;5001419;28;20409;-77
2023/05/25 08:11:56;;;;;;;12.70;5.00;;;16.20;99.90;;;;;;4987981;28;20049;-77
2023/05/25 08:14:27;;;;;;;13.57;5.10;;;16.20;99.90;;;;;;5001256;28;20049;-76
2023/05/25 08:16:59;;;;;;;12.25;5.25;;;16.50;99.90;;;;;;4999452;28;20045;-77
2023/05/25 08:19:40;;;;;;;13.70;4.90;;;16.40;99.90;;;;;;5000852;28;20073;-79
2023/05/25 08:22:09;;;;;;;12.00;5.10;;;16.50;99.90;;;;;;4999721;28;20038;-79
2023/05/25 08:24:48;;;;;;;13.98;5.90;;;16.40;99.90;;;;;;5001452;28;20037;-78
2023/05/25 08:27:17;;;;;;;9.98;4.80;;;16.50;99.90;;;;;;4999711;28;20037;-80
2023/05/25 08:29:43;;;;;;;12.60;5.10;;;16.40;99.90;;;;;;4995652;28;20133;-77
2023/05/25 08:32:12;;;;;;;13.75;4.75;;;16.40;99.90;;;;;;4996554;28;20048;-78
2023/05/25 08:34:38;;;;;;;12.80;4.80;;;16.70;99.90;;;;;;4981054;28;20045;-79
2023/05/25 08:37:08;;;;;;;12.10;4.65;;;16.90;99.90;;;;;;4978646;28;20037;-78
2023/05/25 08:39:42;;;;;;;14.07;4.88;;;17.10;93.60;;;;;;4979935;28;20049;-78
2023/05/25 08:42:11;;;;;;;12.23;4.30;;;17.10;99.90;;;;;;4980356;28;20046;-78
2023/05/25 08:44:43;;;;;;;12.50;4.82;;;17.20;97.70;;;;;;5009626;28;20057;-78
2023/05/25 08:47:21;;;;;;;11.18;4.13;;;17.20;99.90;;;;;;4978873;28;20057;-78
2023/05/25 08:49:57;;;;;;;11.60;4.35;;;17.30;90.40;;;;;;4979115;28;20136;-78
2023/05/25 08:52:34;;;;;;;12.63;4.50;;;17.10;97.90;;;;;;4980282;28;20049;-78
2023/05/25 08:55:04;;;;;;;11.10;4.38;;;17.10;98.50;;;;;;4973988;28;20567;-78
2023/05/25 08:57:51;;;;;;;13.23;5.13;;;17.00;96.40;;;;;;4979516;28;20084;-78
2023/05/25 09:00:20;;;;;;;10.55;4.63;;;16.90;99.90;;;;;;4995498;28;20041;-78
2023/05/25 09:03:12;;;;;;;13.18;5.00;;;17.00;99.90;;;;;;4977229;28;20088;-78
2023/05/25 09:05:38;;;;;;;13.27;4.30;;;16.80;99.90;;;;;;4991556;28;20091;-78
2023/05/25 09:08:08;;;;;;;10.77;4.57;;;16.70;99.90;;;;;;4996779;28;20038;-78
2023/05/25 09:10:35;;;;;;;12.80;4.35;;;16.70;99.90;;;;;;4975919;28;20073;-77
2023/05/25 09:13:06;;;;;;;12.27;4.57;;;16.70;99.90;;;;;;4977921;28;20053;-77
2023/05/25 09:15:40;;;;;;;13.75;4.22;;;16.70;99.90;;;;;;4981625;28;20089;-78
2023/05/25 09:18:30;;;;;;;12.60;4.47;;;16.70;99.90;;;;;;4994487;28;20110;-77
2023/05/25 09:20:57;;;;;;;13.25;5.20;;;16.60;99.90;;;;;;4978176;28;20045;-78
2023/05/25 09:23:23;;;;;;;11.82;4.95;;;16.40;99.90;;;;;;4979362;28;20040;-78
2023/05/25 09:25:50;;;;;;;12.82;4.80;;;16.30;99.90;;;;;;4978984;28;20468;-77
2023/05/25 09:28:19;;;;;;;11.52;4.60;;;16.20;99.90;;;;;;4979574;28;20042;-78
2023/05/25 09:30:53;;;;;;;10.15;4.53;;;16.10;99.90;;;;;;4978969;28;20096;-78
2023/05/25 09:33:19;;;;;;;13.23;4.78;;;16.10;99.90;;;;;;4979561;28;20112;-78
2023/05/25 09:35:48;;;;;;;15.15;4.65;;;16.10;99.90;;;;;;4978698;28;20397;-81
2023/05/25 09:38:17;;;;;;;14.18;4.88;;;16.10;99.90;;;;;;4994651;28;20111;-78
2023/05/25 09:40:44;;;;;;;15.52;5.18;;;16.30;99.90;;;;;;5008742;28;20038;-78
2023/05/25 09:43:23;;;;;;;14.80;4.85;;;16.40;99.90;;;;;;4979282;28;20045;-78
2023/05/25 09:45:57;;;;;;;13.80;5.50;;;16.70;99.90;;;;;;4978443;28;20048;-78
2023/05/25 09:48:23;;;;;;;14.15;4.63;;;16.60;99.90;;;;;;4995295;28;20084;-78
2023/05/25 09:50:52;;;;;;;14.95;5.00;;;16.70;99.90;;;;;;4998984;28;20052;-79
2023/05/25 09:53:18;;;;;;;15.10;5.60;;;16.70;99.90;;;;;;4982285;28;20038;-79
2023/05/25 09:55:48;;;;;;;12.50;4.78;;;16.70;99.90;;;;;;4965260;28;20503;-79
2023/05/25 09:58:21;;;;;;;15.40;5.00;;;17.00;99.90;;;;;;4959507;28;20065;-78
2023/05/25 10:00:47;;;;;;;16.83;5.55;;;17.10;99.90;;;;;;4975570;28;20488;-78
2023/05/25 10:03:16;;;;;;;12.82;4.78;;;17.60;99.90;;;;;;4978552;28;20049;-79
2023/05/25 10:05:44;;;;;;;18.73;6.05;;;18.30;98.70;;;;;;4978237;28;20289;-79
2023/05/25 10:08:12;;;;;;;15.32;5.15;;;18.60;91.30;;;;;;4981395;28;20037;-78
2023/05/25 10:10:48;;;;;;;13.82;5.28;;;18.80;96.90;;;;;;4980312;28;20046;-78
2023/05/25 10:13:30;;;;;;;17.55;5.70;;;19.60;99.90;;;;;;4977469;28;20065;-79
2023/05/25 10:15:56;;;;;;;17.00;4.97;;;20.30;88.80;;;;;;4985925;28;20048;-79
2023/05/25 10:18:26;;;;;;;14.20;4.25;;;20.30;71.30;;;;;;4998765;28;20049;-79
2023/05/25 10:21:01;;;;;;;13.95;5.32;;;19.80;74.30;;;;;;5015189;28;20124;-79
2023/05/25 10:23:40;;;;;;;12.70;4.25;;;19.40;74.60;;;;;;4975632;28;20464;-79
2023/05/25 10:26:07;;;;;;;12.20;4.82;;;19.00;74.60;;;;;;4973711;28;20057;-78
2023/05/25 10:28:38;;;;;;;16.55;5.22;;;18.90;75.90;;;;;;4998668;28;20074;-79
2023/05/25 10:31:05;;;;;;;16.92;5.07;;;19.60;75.50;;;;;;4989787;28;20045;-78
2023/05/25 10:33:32;;;;;;;14.60;5.10;;;20.20;72.90;;;;;;4996976;28;20048;-78
2023/05/25 10:35:59;;;;;;;13.85;4.28;;;20.40;74.80;;;;;;4997644;28;20083;-79
2023/05/25 10:38:30;;;;;;;13.60;4.88;;;21.20;70.90;;;;;;4997341;28;20465;-79
2023/05/25 10:41:05;;;;;;;14.95;4.40;;;22.00;70.80;;;;;;4997739;28;20180;-79
2023/05/25 10:43:31;;;;;;;14.43;5.13;;;22.80;66.60;;;;;;4995008;28;20045;-79
2023/05/25 10:45:57;;;;;;;13.95;4.60;;;23.00;65.30;;;;;;4997913;28;20038;-80
2023/05/25 10:48:33;;;;;;;16.40;4.78;;;22.70;60.30;;;;;;4997611;28;20534;-79
2023/05/25 10:51:02;;;;;;;16.60;4.85;;;22.10;61.10;;;;;;5013354;28;20125;-80
2023/05/25 10:53:28;;;;;;;13.65;4.88;;;22.00;61.50;;;;;;4998760;28;20184;-80
2023/05/25 10:55:57;;;;;;;17.70;4.25;;;22.40;62.30;;;;;;4998259;28;20047;-79
2023/05/25 10:58:30;;;;;;;19.67;5.25;;;22.70;59.40;;;;;;5014933;28;20045;-80
2023/05/25 11:01:07;;;;;;;14.85;4.95;;;22.20;57.60;;;;;;4989421;28;20075;-80
2023/05/25 11:03:54;;;;;;;11.88;4.45;;;21.60;59.90;;;;;;4997458;28;20419;-80
2023/05/25 11:06:43;;;;;;;13.13;4.55;;;21.90;61.60;;;;;;4997841;28;20037;-79
2023/05/25 11:09:32;;;;;;;19.90;5.18;;;22.50;61.10;;;;;;4993300;28;20496;-79
2023/05/25 11:12:00;;;;;;;15.73;5.13;;;23.10;55.30;;;;;;5011364;28;20046;-79
2023/05/25 11:14:29;;;;;;;15.15;5.00;;;22.90;58.80;;;;;;4995289;28;20324;-79
2023/05/25 11:17:10;;;;;;;11.43;5.25;;;22.90;57.20;;;;;;4997377;28;20053;-79
2023/05/25 11:19:43;;;;;;;14.73;4.55;;;23.10;58.30;;;;;;4993953;28;20046;-80
2023/05/25 11:22:21;;;;;;;13.60;4.88;;;23.20;55.80;;;;;;4995562;28;20044;-79
2023/05/25 11:24:51;;;;;;;12.88;4.88;;;22.70;55.70;;;;;;4999560;28;20098;-79
2023/05/25 11:27:23;;;;;;;13.93;4.82;;;22.00;54.80;;;;;;4988696;28;20042;-79
2023/05/25 11:29:51;;;;;;;13.65;5.20;;;21.50;56.70;;;;;;4995013;28;20116;-78
2023/05/25 11:32:18;;;;;;;15.32;4.70;;;21.30;58.00;;;;;;4998275;28;20045;-79
2023/05/25 11:34:46;;;;;;;13.00;4.57;;;21.30;59.20;;;;;;5009060;28;20099;-79
2023/05/25 11:37:19;;;;;;;13.30;4.78;;;21.40;60.40;;;;;;4996103;28;20042;-79
2023/05/25 11:39:48;;;;;;;14.95;5.13;;;22.00;59.10;;;;;;4997901;28;20091;-78
2023/05/25 11:42:17;;;;;;;15.48;5.10;;;22.30;56.80;;;;;;5004532;28;20045;-78
2023/05/25 11:44:43;;;;;;;14.43;4.70;;;22.60;60.40;;;;;;5001402;28;20050;-79
2023/05/25 11:47:21;;;;;;;17.58;5.30;;;23.10;54.30;;;;;;4992630;28;20515;-78
2023/05/25 11:49:48;;;;;;;15.55;4.75;;;22.60;56.40;;;;;;5011357;28;20030;-77
2023/05/25 11:52:21;;;;;;;14.60;5.00;;;22.10;56.70;;;;;;4998755;28;20120;-78
2023/05/25 11:54:51;;;;;;;14.07;5.07;;;21.90;58.90;;;;;;5011486;28;20491;-78
2023/05/25 11:57:23;;;;;;;15.27;5.07;;;22.50;61.50;;;;;;5000325;28;20085;-78
2023/05/25 11:59:53;;;;;;;16.48;5.10;;;23.40;57.10;;;;;;5015979;28;20044;-79
2023/05/25 12:02:19;;;;;;;14.00;4.88;;;23.40;55.00;;;;;;5006353;28;20408;-79
2023/05/25 12:04:56;;;;;;;15.70;5.43;;;22.90;55.80;;;;;;4995287;28;20038;-77
2023/05/25 12:07:32;;;;;;;12.68;4.82;;;22.80;57.60;;;;;;5000708;28;20498;-80
2023/05/25 12:10:15;;;;;;;13.88;5.30;;;23.40;55.20;;;;;;4985376;28;20049;-81
2023/05/25 12:12:41;;;;;;;13.55;5.00;;;23.60;51.70;;;;;;5017863;28;20067;-79
2023/05/25 12:15:10;;;;;;;12.63;4.45;;;23.30;52.90;;;;;;5002027;28;20120;-80
2023/05/25 12:17:36;;;;;;;15.50;5.00;;;23.00;54.50;;;;;;4997838;28;20140;-79
2023/05/25 12:20:05;;;;;;;14.23;5.20;;;23.00;53.20;;;;;;5015564;28;20081;-81
2023/05/25 12:22:31;;;;;;;15.93;5.53;;;22.90;53.50;;;;;;5013284;28;20049;-79
2023/05/25 12:25:01;;;;;;;14.23;5.35;;;23.00;53.90;;;;;;4997878;28;20075;-80
2023/05/25 12:27:27;;;;;;;12.82;5.32;;;22.90;53.00;;;;;;5000713;28;20052;-80
2023/05/25 12:29:53;;;;;;;15.07;5.15;;;22.80;52.30;;;;;;5000380;28;20049;-79
2023/05/25 12:32:21;;;;;;;13.45;5.28;;;22.60;53.70;;;;;;5000688;28;20077;-80
2023/05/25 12:34:52;;;;;;;15.35;5.88;;;22.70;54.50;;;;;;5000754;28;20096;-79
2023/05/25 12:37:20;;;;;;;15.05;5.30;;;23.00;56.30;;;;;;5000464;28;20061;-79
2023/05/25 12:39:50;;;;;;;19.48;6.00;;;23.40;55.40;;;;;;5001491;28;20072;-79
2023/05/25 12:42:25;;;;;;;15.00;5.53;;;23.10;50.80;;;;;;5017759;28;20562;-79
2023/05/25 12:44:56;;;;;;;15.38;5.75;;;22.20;53.80;;;;;;5001911;28;20046;-79
2023/05/25 12:47:29;;;;;;;14.63;5.40;;;22.00;55.50;;;;;;5001940;28;20037;-79
2023/05/25 12:50:14;;;;;;;13.75;4.80;;;22.40;57.40;;;;;;5016661;28;20073;-79
2023/05/25 12:52:45;;;;;;;15.50;5.57;;;23.30;56.60;;;;;;5010543;28;20076;-79
2023/05/25 12:55:30;;;;;;;14.45;5.40;;;23.80;51.90;;;;;;5000751;28;20097;-79
2023/05/25 12:58:07;;;;;;;15.32;5.55;;;23.60;50.20;;;;;;5017665;28;20041;-80
2023/05/25 13:00:34;;;;;;;18.27;5.55;;;23.10;52.40;;;;;;5001886;28;20046;-80
2023/05/25 13:03:01;;;;;;;16.05;6.13;;;22.80;53.40;;;;;;5001761;28;20034;-79
2023/05/25 13:05:32;;;;;;;16.55;5.60;;;22.40;56.10;;;;;;5000024;28;20037;-79
2023/05/25 13:08:07;;;;;;;16.83;5.60;;;22.50;55.10;;;;;;5001411;28;20037;-79
2023/05/25 13:10:39;;;;;;;18.67;6.63;;;22.50;54.50;;;;;;5018578;28;20519;-79
2023/05/25 13:13:13;;;;;;;13.32;5.07;;;22.40;55.60;;;;;;5002187;28;20041;-79
2023/05/25 13:15:39;;;;;;;16.65;6.20;;;22.80;54.80;;;;;;5001685;28;20448;-79
2023/05/25 13:18:11;;;;;;;19.88;5.80;;;23.00;52.10;;;;;;5016198;28;20094;-80
2023/05/25 13:20:43;;;;;;;17.73;6.50;;;22.20;52.70;;;;;;4995251;28;20076;-80